sensor_id;sensor_type;location;lat;lon;timestamp;pressure;altitude;pressure_sealevel;temperature;humidity
69971;BME280;57301;50.328;8.542;2022-07-26T00:01:19;98246.53;;;17.54;70.71
69971;BME280;57301;50.328;8.542;2022-07-26T00:03:47;98248.53;;;17.25;72.29
69971;BME280;57301;50.328;8.542;2022-07-26T00:06:14;98246.41;;;17.14;72.80
69971;BME280;57301;50.328;8.542;2022-07-26T00:08:44;98250.88;;;17.55;71.74
69971;BME280;57301;50.328;8.542;2022-07-26T00:11:10;98248.28;;;17.88;70.22
69971;BME280;57301;50.328;8.542;2022-07-26T00:13:37;98250.16;;;18.01;69.53
69971;BME280;57301;50.328;8.542;2022-07-26T00:16:03;98250.16;;;18.01;69.17
69971;BME280;57301;50.328;8.542;2022-07-26T00:18:31;98248.50;;;17.86;69.07
69971;BME280;57301;50.328;8.542;2022-07-26T00:20:58;98245.31;;;17.69;69.77
69971;BME280;57301;50.328;8.542;2022-07-26T00:23:26;98258.78;;;17.50;70.94
69971;BME280;57301;50.328;8.542;2022-07-26T00:25:52;98264.09;;;17.36;71.27
69971;BME280;57301;50.328;8.542;2022-07-26T00:28:19;98263.25;;;17.29;71.29
69971;BME280;57301;50.328;8.542;2022-07-26T00:30:46;98268.63;;;17.23;71.67
69971;BME280;57301;50.328;8.542;2022-07-26T00:33:12;98279.13;;;17.11;72.29
69971;BME280;57301;50.328;8.542;2022-07-26T00:35:39;98271.63;;;17.00;72.60
69971;BME280;57301;50.328;8.542;2022-07-26T00:38:05;98267.91;;;16.94;73.11
69971;BME280;57301;50.328;8.542;2022-07-26T00:40:33;98273.50;;;16.99;72.93
69971;BME280;57301;50.328;8.542;2022-07-26T00:42:59;98279.59;;;17.14;73.25
69971;BME280;57301;50.328;8.542;2022-07-26T00:45:27;98278.19;;;17.25;72.03
69971;BME280;57301;50.328;8.542;2022-07-26T00:47:53;98288.97;;;17.25;72.22
69971;BME280;57301;50.328;8.542;2022-07-26T00:50:20;98297.69;;;17.34;72.03
69971;BME280;57301;50.328;8.542;2022-07-26T00:52:47;98291.50;;;17.40;71.47
69971;BME280;57301;50.328;8.542;2022-07-26T00:55:16;98297.13;;;17.45;71.21
69971;BME280;57301;50.328;8.542;2022-07-26T00:57:44;98297.13;;;17.45;71.25
69971;BME280;57301;50.328;8.542;2022-07-26T01:00:17;98307.91;;;17.45;71.05
69971;BME280;57301;50.328;8.542;2022-07-26T01:02:45;98307.69;;;17.46;71.24
69971;BME280;57301;50.328;8.542;2022-07-26T01:05:11;98312.84;;;17.41;71.13
69971;BME280;57301;50.328;8.542;2022-07-26T01:07:39;98320.88;;;17.28;71.84
69971;BME280;57301;50.328;8.542;2022-07-26T01:10:07;98313.22;;;17.25;71.81
69971;BME280;57301;50.328;8.542;2022-07-26T01:12:38;98311.75;;;17.29;71.79
69971;BME280;57301;50.328;8.542;2022-07-26T01:15:06;98313.41;;;17.30;72.03
69971;BME280;57301;50.328;8.542;2022-07-26T01:17:34;98320.09;;;17.34;71.97
69971;BME280;57301;50.328;8.542;2022-07-26T01:20:04;98316.13;;;17.37;71.76
69971;BME280;57301;50.328;8.542;2022-07-26T01:22:31;98312.84;;;17.41;71.70
69971;BME280;57301;50.328;8.542;2022-07-26T01:24:58;98312.25;;;17.46;71.14
69971;BME280;57301;50.328;8.542;2022-07-26T01:27:25;98302.91;;;17.49;71.53
69971;BME280;57301;50.328;8.542;2022-07-26T01:29:58;98308.31;;;17.49;71.52
69971;BME280;57301;50.328;8.542;2022-07-26T01:32:25;98307.31;;;17.50;71.73
69971;BME280;57301;50.328;8.542;2022-07-26T01:34:51;98307.31;;;17.50;72.02
69971;BME280;57301;50.328;8.542;2022-07-26T01:37:18;98313.31;;;17.52;71.62
69971;BME280;57301;50.328;8.542;2022-07-26T01:39:44;98304.81;;;17.55;71.76
69971;BME280;57301;50.328;8.542;2022-07-26T01:42:11;98312.91;;;17.61;71.52
69971;BME280;57301;50.328;8.542;2022-07-26T01:44:38;98306.50;;;17.56;72.02
69971;BME280;57301;50.328;8.542;2022-07-26T01:47:05;98307.09;;;17.51;71.88
69971;BME280;57301;50.328;8.542;2022-07-26T01:49:32;98323.03;;;17.46;71.83
69971;BME280;57301;50.328;8.542;2022-07-26T01:51:58;98314.31;;;17.37;72.25
69971;BME280;57301;50.328;8.542;2022-07-26T01:54:25;98311.19;;;17.40;72.82
69971;BME280;57301;50.328;8.542;2022-07-26T01:56:51;98313.44;;;17.37;72.95
69971;BME280;57301;50.328;8.542;2022-07-26T01:59:18;98320.31;;;17.39;72.55
69971;BME280;57301;50.328;8.542;2022-07-26T02:01:44;98318.44;;;17.40;72.78
69971;BME280;57301;50.328;8.542;2022-07-26T02:04:11;98322.78;;;17.34;72.96
69971;BME280;57301;50.328;8.542;2022-07-26T02:06:57;98320.28;;;17.33;72.65
69971;BME280;57301;50.328;8.542;2022-07-26T02:09:24;98309.56;;;17.46;72.63
69971;BME280;57301;50.328;8.542;2022-07-26T02:11:54;98315.38;;;17.50;71.93
69971;BME280;57301;50.328;8.542;2022-07-26T02:14:20;98312.47;;;17.51;72.03
69971;BME280;57301;50.328;8.542;2022-07-26T02:16:53;98314.75;;;17.48;71.98
69971;BME280;57301;50.328;8.542;2022-07-26T02:19:27;98317.66;;;17.53;71.28
69971;BME280;57301;50.328;8.542;2022-07-26T02:21:54;98315.16;;;17.44;72.04
69971;BME280;57301;50.328;8.542;2022-07-26T02:24:21;98317.00;;;17.37;72.47
69971;BME280;57301;50.328;8.542;2022-07-26T02:26:47;98326.56;;;17.46;71.93
69971;BME280;57301;50.328;8.542;2022-07-26T02:29:14;98321.75;;;17.42;71.92
69971;BME280;57301;50.328;8.542;2022-07-26T02:31:40;98313.88;;;17.34;71.88
69971;BME280;57301;50.328;8.542;2022-07-26T02:34:13;98322.38;;;17.37;72.05
69971;BME280;57301;50.328;8.542;2022-07-26T02:36:40;98325.09;;;17.37;72.04
69971;BME280;57301;50.328;8.542;2022-07-26T02:39:07;98321.75;;;17.35;71.80
69971;BME280;57301;50.328;8.542;2022-07-26T02:41:33;98320.44;;;17.25;72.14
69971;BME280;57301;50.328;8.542;2022-07-26T02:43:59;98329.53;;;17.17;72.25
69971;BME280;57301;50.328;8.542;2022-07-26T02:46:26;98314.63;;;17.14;72.63
69971;BME280;57301;50.328;8.542;2022-07-26T02:48:52;98325.19;;;17.16;72.85
69971;BME280;57301;50.328;8.542;2022-07-26T02:51:19;98324.09;;;17.04;72.19
69971;BME280;57301;50.328;8.542;2022-07-26T02:53:46;98327.00;;;17.02;72.47
69971;BME280;57301;50.328;8.542;2022-07-26T02:56:12;98328.41;;;16.98;71.59
69971;BME280;57301;50.328;8.542;2022-07-26T02:58:39;98328.19;;;17.00;71.85
69971;BME280;57301;50.328;8.542;2022-07-26T03:01:05;98335.72;;;17.11;71.20
69971;BME280;57301;50.328;8.542;2022-07-26T03:03:33;98331.38;;;17.10;70.78
69971;BME280;57301;50.328;8.542;2022-07-26T03:06:03;98325.97;;;17.10;70.08
69971;BME280;57301;50.328;8.542;2022-07-26T03:08:30;98335.72;;;17.11;69.76
69971;BME280;57301;50.328;8.542;2022-07-26T03:10:56;98334.69;;;17.12;69.60
69971;BME280;57301;50.328;8.542;2022-07-26T03:13:23;98334.91;;;17.10;70.22
69971;BME280;57301;50.328;8.542;2022-07-26T03:15:49;98325.31;;;17.01;69.68
69971;BME280;57301;50.328;8.542;2022-07-26T03:18:16;98337.72;;;16.96;69.90
69971;BME280;57301;50.328;8.542;2022-07-26T03:20:43;98342.63;;;16.85;70.87
69971;BME280;57301;50.328;8.542;2022-07-26T03:23:09;98343.66;;;16.84;70.36
69971;BME280;57301;50.328;8.542;2022-07-26T03:25:37;98341.91;;;16.70;70.70
69971;BME280;57301;50.328;8.542;2022-07-26T03:28:03;98347.66;;;16.67;71.22
69971;BME280;57301;50.328;8.542;2022-07-26T03:30:30;98340.09;;;16.56;71.47
69971;BME280;57301;50.328;8.542;2022-07-26T03:32:57;98332.91;;;16.35;72.03
69971;BME280;57301;50.328;8.542;2022-07-26T03:35:23;98336.22;;;16.09;71.29
69971;BME280;57301;50.328;8.542;2022-07-26T03:37:51;98330.25;;;15.56;72.93
69971;BME280;57301;50.328;8.542;2022-07-26T03:40:18;98330.97;;;15.28;74.67
69971;BME280;57301;50.328;8.542;2022-07-26T03:42:46;98324.31;;;14.80;76.36
69971;BME280;57301;50.328;8.542;2022-07-26T03:45:14;98327.25;;;14.85;76.78
69971;BME280;57301;50.328;8.542;2022-07-26T03:47:41;98320.06;;;14.86;76.03
69971;BME280;57301;50.328;8.542;2022-07-26T03:50:09;98327.81;;;14.95;76.19
69971;BME280;57301;50.328;8.542;2022-07-26T03:52:36;98338.72;;;14.79;76.91
69971;BME280;57301;50.328;8.542;2022-07-26T03:55:03;98334.97;;;14.73;77.15
69971;BME280;57301;50.328;8.542;2022-07-26T03:57:50;98337.06;;;14.63;77.07
69971;BME280;57301;50.328;8.542;2022-07-26T04:00:17;98329.47;;;14.67;77.23
69971;BME280;57301;50.328;8.542;2022-07-26T04:02:43;98327.25;;;14.85;76.55
69971;BME280;57301;50.328;8.542;2022-07-26T04:05:10;98320.34;;;14.61;77.08
69971;BME280;57301;50.328;8.542;2022-07-26T04:07:44;98324.47;;;14.49;77.85
69971;BME280;57301;50.328;8.542;2022-07-26T04:10:19;98323.81;;;14.47;77.87
69971;BME280;57301;50.328;8.542;2022-07-26T04:12:45;98324.28;;;14.65;77.39
69971;BME280;57301;50.328;8.542;2022-07-26T04:15:12;98327.16;;;15.08;75.78
69971;BME280;57301;50.328;8.542;2022-07-26T04:17:39;98327.25;;;15.15;74.96
69971;BME280;57301;50.328;8.542;2022-07-26T04:20:08;98332.59;;;15.44;74.05
69971;BME280;57301;50.328;8.542;2022-07-26T04:22:36;98330.81;;;15.66;73.63
69971;BME280;57301;50.328;8.542;2022-07-26T04:25:04;98327.34;;;15.94;72.44
69971;BME280;57301;50.328;8.542;2022-07-26T04:27:32;98321.78;;;16.17;71.41
69971;BME280;57301;50.328;8.542;2022-07-26T04:29:59;98331.09;;;16.42;70.82
69971;BME280;57301;50.328;8.542;2022-07-26T04:32:25;98338.91;;;16.58;69.76
69971;BME280;57301;50.328;8.542;2022-07-26T04:34:52;98333.34;;;16.66;69.18
69971;BME280;57301;50.328;8.542;2022-07-26T04:37:19;98342.03;;;16.90;68.67
69971;BME280;57301;50.328;8.542;2022-07-26T04:39:45;98341.47;;;16.95;68.46
69971;BME280;57301;50.328;8.542;2022-07-26T04:42:18;98347.09;;;17.06;68.49
69971;BME280;57301;50.328;8.542;2022-07-26T04:44:44;98352.16;;;17.23;68.25
69971;BME280;57301;50.328;8.542;2022-07-26T04:47:11;98347.81;;;17.22;67.63
69971;BME280;57301;50.328;8.542;2022-07-26T04:49:39;98346.53;;;17.17;67.80
69971;BME280;57301;50.328;8.542;2022-07-26T04:52:05;98351.44;;;17.49;66.89
69971;BME280;57301;50.328;8.542;2022-07-26T04:54:32;98351.28;;;17.57;66.94
69971;BME280;57301;50.328;8.542;2022-07-26T04:56:59;98349.94;;;17.74;66.30
69971;BME280;57301;50.328;8.542;2022-07-26T04:59:25;98348.44;;;17.71;66.97
69971;BME280;57301;50.328;8.542;2022-07-26T05:01:52;98350.53;;;17.76;65.78
69971;BME280;57301;50.328;8.542;2022-07-26T05:04:18;98354.47;;;17.73;66.82
69971;BME280;57301;50.328;8.542;2022-07-26T05:06:45;98349.06;;;17.73;67.31
69971;BME280;57301;50.328;8.542;2022-07-26T05:09:11;98354.56;;;18.07;66.06
69971;BME280;57301;50.328;8.542;2022-07-26T05:11:38;98349.97;;;18.01;66.34
69971;BME280;57301;50.328;8.542;2022-07-26T05:14:04;98356.88;;;18.23;65.95
69971;BME280;57301;50.328;8.542;2022-07-26T05:16:31;98354.19;;;18.23;65.25
69971;BME280;57301;50.328;8.542;2022-07-26T05:18:58;98346.75;;;17.70;66.55
69971;BME280;57301;50.328;8.542;2022-07-26T05:21:25;98354.56;;;18.13;66.09
69971;BME280;57301;50.328;8.542;2022-07-26T05:23:54;98356.84;;;18.16;66.58
69971;BME280;57301;50.328;8.542;2022-07-26T05:26:20;98352.53;;;18.42;66.30
69971;BME280;57301;50.328;8.542;2022-07-26T05:28:47;98351.03;;;18.59;64.29
69971;BME280;57301;50.328;8.542;2022-07-26T05:31:13;98345.81;;;19.11;62.78
69971;BME280;57301;50.328;8.542;2022-07-26T05:33:40;98348.88;;;20.17;59.03
69971;BME280;57301;50.328;8.542;2022-07-26T05:36:07;98352.38;;;20.24;59.16
69971;BME280;57301;50.328;8.542;2022-07-26T05:38:34;98351.72;;;22.49;52.68
69971;BME280;57301;50.328;8.542;2022-07-26T05:41:00;98359.84;;;24.52;47.65
69971;BME280;57301;50.328;8.542;2022-07-26T05:43:27;98355.56;;;25.06;44.42
69971;BME280;57301;50.328;8.542;2022-07-26T05:46:07;98350.97;;;25.94;42.70
69971;BME280;57301;50.328;8.542;2022-07-26T05:48:35;98356.38;;;25.67;42.23
69971;BME280;57301;50.328;8.542;2022-07-26T05:51:02;98353.00;;;24.66;44.41
69971;BME280;57301;50.328;8.542;2022-07-26T05:53:28;98354.94;;;25.82;42.70
69971;BME280;57301;50.328;8.542;2022-07-26T05:55:55;98354.03;;;27.26;39.12
69971;BME280;57301;50.328;8.542;2022-07-26T05:58:21;98354.63;;;27.96;37.16
69971;BME280;57301;50.328;8.542;2022-07-26T06:00:48;98345.78;;;27.74;37.65
69971;BME280;57301;50.328;8.542;2022-07-26T06:03:14;98346.44;;;26.59;40.24
69971;BME280;57301;50.328;8.542;2022-07-26T06:05:55;98346.47;;;27.01;39.13
69971;BME280;57301;50.328;8.542;2022-07-26T06:08:23;98346.44;;;28.17;37.13
69971;BME280;57301;50.328;8.542;2022-07-26T06:10:51;98343.16;;;29.22;34.47
69971;BME280;57301;50.328;8.542;2022-07-26T06:13:18;98349.75;;;30.01;33.12
69971;BME280;57301;50.328;8.542;2022-07-26T06:15:46;98355.75;;;29.53;33.82
69971;BME280;57301;50.328;8.542;2022-07-26T06:18:13;98352.50;;;29.36;33.84
69971;BME280;57301;50.328;8.542;2022-07-26T06:20:44;98347.03;;;29.15;34.94
69971;BME280;57301;50.328;8.542;2022-07-26T06:23:11;98355.03;;;28.86;35.00
69971;BME280;57301;50.328;8.542;2022-07-26T06:25:39;98360.84;;;27.24;37.61
69971;BME280;57301;50.328;8.542;2022-07-26T06:28:07;98358.00;;;29.31;34.82
69971;BME280;57301;50.328;8.542;2022-07-26T06:30:35;98363.19;;;30.12;33.24
69971;BME280;57301;50.328;8.542;2022-07-26T06:33:03;98357.97;;;30.50;31.74
69971;BME280;57301;50.328;8.542;2022-07-26T06:35:30;98365.75;;;29.88;32.98
69971;BME280;57301;50.328;8.542;2022-07-26T06:37:57;98369.94;;;29.76;33.84
69971;BME280;57301;50.328;8.542;2022-07-26T06:40:25;98371.38;;;30.28;32.98
69971;BME280;57301;50.328;8.542;2022-07-26T06:42:52;98369.44;;;29.68;33.19
69971;BME280;57301;50.328;8.542;2022-07-26T06:45:18;98369.50;;;30.13;33.57
69971;BME280;57301;50.328;8.542;2022-07-26T06:47:45;98370.09;;;30.88;31.69
69971;BME280;57301;50.328;8.542;2022-07-26T06:50:12;98364.78;;;30.97;31.95
69971;BME280;57301;50.328;8.542;2022-07-26T06:52:38;98380.00;;;30.50;32.40
69971;BME280;57301;50.328;8.542;2022-07-26T06:55:05;98372.03;;;30.04;32.87
69971;BME280;57301;50.328;8.542;2022-07-26T06:57:39;98386.34;;;29.16;34.29
69971;BME280;57301;50.328;8.542;2022-07-26T07:00:16;98370.97;;;28.95;34.91
69971;BME280;57301;50.328;8.542;2022-07-26T07:02:43;98375.81;;;29.59;33.87
69971;BME280;57301;50.328;8.542;2022-07-26T07:05:10;98369.72;;;30.66;32.22
69971;BME280;57301;50.328;8.542;2022-07-26T07:07:37;98365.56;;;31.02;32.09
69971;BME280;57301;50.328;8.542;2022-07-26T07:10:08;98372.47;;;31.00;30.93
69971;BME280;57301;50.328;8.542;2022-07-26T07:12:34;98364.16;;;31.58;30.22
69971;BME280;57301;50.328;8.542;2022-07-26T07:15:01;98369.56;;;30.47;32.85
69971;BME280;57301;50.328;8.542;2022-07-26T07:17:27;98369.16;;;30.24;31.87
69971;BME280;57301;50.328;8.542;2022-07-26T07:19:54;98367.44;;;30.39;31.79
69971;BME280;57301;50.328;8.542;2022-07-26T07:22:21;98375.41;;;30.40;32.03
69971;BME280;57301;50.328;8.542;2022-07-26T07:24:47;98368.41;;;30.92;31.11
69971;BME280;57301;50.328;8.542;2022-07-26T07:27:14;98369.44;;;31.01;30.62
69971;BME280;57301;50.328;8.542;2022-07-26T07:29:41;98365.69;;;31.16;31.34
69971;BME280;57301;50.328;8.542;2022-07-26T07:32:09;98366.00;;;31.44;30.33
69971;BME280;57301;50.328;8.542;2022-07-26T07:34:46;98375.31;;;30.01;32.22
69971;BME280;57301;50.328;8.542;2022-07-26T07:37:13;98366.13;;;30.70;31.05
69971;BME280;57301;50.328;8.542;2022-07-26T07:39:40;98376.16;;;29.01;33.81
69971;BME280;57301;50.328;8.542;2022-07-26T07:42:06;98380.81;;;28.45;34.25
69971;BME280;57301;50.328;8.542;2022-07-26T07:44:33;98380.19;;;29.50;32.74
69971;BME280;57301;50.328;8.542;2022-07-26T07:47:00;98371.78;;;28.54;33.91
69971;BME280;57301;50.328;8.542;2022-07-26T07:49:27;98369.72;;;30.66;31.37
69971;BME280;57301;50.328;8.542;2022-07-26T07:51:54;98372.94;;;30.39;31.69
69971;BME280;57301;50.328;8.542;2022-07-26T07:54:20;98377.25;;;29.15;33.52
69971;BME280;57301;50.328;8.542;2022-07-26T07:56:47;98385.19;;;28.41;34.14
69971;BME280;57301;50.328;8.542;2022-07-26T07:59:14;98378.47;;;26.64;37.97
69971;BME280;57301;50.328;8.542;2022-07-26T08:01:41;98377.53;;;25.00;41.41
69971;BME280;57301;50.328;8.542;2022-07-26T08:04:10;98381.75;;;25.24;41.90
69971;BME280;57301;50.328;8.542;2022-07-26T08:06:37;98383.28;;;26.51;39.27
69971;BME280;57301;50.328;8.542;2022-07-26T08:09:06;98389.88;;;26.56;38.02
69971;BME280;57301;50.328;8.542;2022-07-26T08:11:33;98386.75;;;26.42;38.44
69971;BME280;57301;50.328;8.542;2022-07-26T08:14:00;98376.31;;;27.45;36.54
69971;BME280;57301;50.328;8.542;2022-07-26T08:16:27;98386.47;;;28.07;35.64
69971;BME280;57301;50.328;8.542;2022-07-26T08:18:53;98388.22;;;28.49;34.75
69971;BME280;57301;50.328;8.542;2022-07-26T08:21:23;98391.25;;;29.09;33.87
69971;BME280;57301;50.328;8.542;2022-07-26T08:23:52;98387.31;;;29.71;33.30
69971;BME280;57301;50.328;8.542;2022-07-26T08:26:19;98380.47;;;30.23;31.71
69971;BME280;57301;50.328;8.542;2022-07-26T08:28:46;98375.31;;;30.01;31.49
69971;BME280;57301;50.328;8.542;2022-07-26T08:31:14;98390.22;;;30.44;30.39
69971;BME280;57301;50.328;8.542;2022-07-26T08:33:41;98393.63;;;30.75;30.32
69971;BME280;57301;50.328;8.542;2022-07-26T08:36:13;98397.72;;;31.12;29.97
69971;BME280;57301;50.328;8.542;2022-07-26T08:38:40;98389.59;;;30.92;29.91
69971;BME280;57301;50.328;8.542;2022-07-26T08:41:07;98383.22;;;31.31;30.42
69971;BME280;57301;50.328;8.542;2022-07-26T08:43:34;98388.75;;;31.31;29.81
69971;BME280;57301;50.328;8.542;2022-07-26T08:46:16;98394.78;;;31.33;29.35
69971;BME280;57301;50.328;8.542;2022-07-26T08:48:50;98385.13;;;30.62;30.82
69971;BME280;57301;50.328;8.542;2022-07-26T08:51:19;98402.53;;;29.02;33.18
69971;BME280;57301;50.328;8.542;2022-07-26T08:53:48;98408.13;;;27.51;35.86
69971;BME280;57301;50.328;8.542;2022-07-26T08:56:15;98409.63;;;26.63;37.47
69971;BME280;57301;50.328;8.542;2022-07-26T08:58:42;98405.66;;;26.21;38.65
69971;BME280;57301;50.328;8.542;2022-07-26T09:01:10;98412.69;;;26.66;38.24
69971;BME280;57301;50.328;8.542;2022-07-26T09:03:42;98415.53;;;27.56;36.63
69971;BME280;57301;50.328;8.542;2022-07-26T09:06:20;98410.75;;;26.99;37.64
69971;BME280;57301;50.328;8.542;2022-07-26T09:08:49;98410.19;;;27.29;37.87
69971;BME280;57301;50.328;8.542;2022-07-26T09:11:27;98412.03;;;26.54;38.18
69971;BME280;57301;50.328;8.542;2022-07-26T09:14:01;98410.19;;;26.11;39.32
69971;BME280;57301;50.328;8.542;2022-07-26T09:16:30;98427.69;;;25.49;40.62
69971;BME280;57301;50.328;8.542;2022-07-26T09:19:17;98424.97;;;25.71;40.88
69971;BME280;57301;50.328;8.542;2022-07-26T09:21:44;98414.03;;;26.64;39.18
69971;BME280;57301;50.328;8.542;2022-07-26T09:24:12;98425.22;;;26.89;38.88
69971;BME280;57301;50.328;8.542;2022-07-26T09:26:38;98426.94;;;26.41;37.44
69971;BME280;57301;50.328;8.542;2022-07-26T09:31:33;98432.13;;;25.94;39.65
69971;BME280;57301;50.328;8.542;2022-07-26T09:34:00;98425.69;;;25.83;40.59
69971;BME280;57301;50.328;8.542;2022-07-26T09:36:27;98425.13;;;25.81;40.63
69971;BME280;57301;50.328;8.542;2022-07-26T09:38:56;98416.56;;;25.94;40.49
69971;BME280;57301;50.328;8.542;2022-07-26T09:41:33;98421.19;;;26.70;39.97
69971;BME280;57301;50.328;8.542;2022-07-26T09:44:18;98421.16;;;26.97;37.47
69971;BME280;57301;50.328;8.542;2022-07-26T09:46:52;98419.00;;;26.67;36.81
69971;BME280;57301;50.328;8.542;2022-07-26T09:49:21;98428.22;;;27.20;36.57
69971;BME280;57301;50.328;8.542;2022-07-26T09:51:52;98415.00;;;27.12;37.27
69971;BME280;57301;50.328;8.542;2022-07-26T09:54:31;98424.22;;;27.38;37.22
69971;BME280;57301;50.328;8.542;2022-07-26T09:56:58;98431.97;;;27.56;37.60
69971;BME280;57301;50.328;8.542;2022-07-26T09:59:26;98432.91;;;27.29;37.13
69971;BME280;57301;50.328;8.542;2022-07-26T10:01:55;98440.38;;;26.75;38.06
69971;BME280;57301;50.328;8.542;2022-07-26T10:04:23;98430.31;;;26.26;38.13
69971;BME280;57301;50.328;8.542;2022-07-26T10:06:50;98436.31;;;26.50;38.82
69971;BME280;57301;50.328;8.542;2022-07-26T10:09:17;98429.28;;;27.61;36.54
69971;BME280;57301;50.328;8.542;2022-07-26T10:11:50;98436.44;;;27.67;35.75
69971;BME280;57301;50.328;8.542;2022-07-26T10:14:38;98428.31;;;27.82;36.62
69971;BME280;57301;50.328;8.542;2022-07-26T10:19:57;98437.09;;;28.62;34.84
69971;BME280;57301;50.328;8.542;2022-07-26T10:22:32;98436.66;;;28.13;35.75
69971;BME280;57301;50.328;8.542;2022-07-26T10:32:57;98448.56;;;28.44;35.59
69971;BME280;57301;50.328;8.542;2022-07-26T10:38:21;98443.41;;;28.88;34.34
69971;BME280;57301;50.328;8.542;2022-07-26T10:40:59;98440.16;;;27.98;35.59
69971;BME280;57301;50.328;8.542;2022-07-26T10:43:27;98446.16;;;28.83;34.71
69971;BME280;57301;50.328;8.542;2022-07-26T10:51:25;98451.66;;;30.35;31.99
69971;BME280;57301;50.328;8.542;2022-07-26T10:54:04;98448.34;;;29.63;32.74
69971;BME280;57301;50.328;8.542;2022-07-26T10:56:32;98458.34;;;30.13;32.46
69971;BME280;57301;50.328;8.542;2022-07-26T10:59:00;98450.81;;;29.39;33.39
69971;BME280;57301;50.328;8.542;2022-07-26T11:01:34;98450.16;;;28.25;35.80
69971;BME280;57301;50.328;8.542;2022-07-26T11:04:01;98460.53;;;28.23;36.30
69971;BME280;57301;50.328;8.542;2022-07-26T11:06:29;98458.19;;;28.47;37.42
69971;BME280;57301;50.328;8.542;2022-07-26T11:08:55;98459.34;;;29.42;34.77
69971;BME280;57301;50.328;8.542;2022-07-26T11:11:31;98460.22;;;29.23;34.50
69971;BME280;57301;50.328;8.542;2022-07-26T11:16:44;98450.06;;;28.04;36.52
69971;BME280;57301;50.328;8.542;2022-07-26T11:19:29;98446.53;;;28.14;36.87
69971;BME280;57301;50.328;8.542;2022-07-26T11:21:57;98442.56;;;27.05;38.29
69971;BME280;57301;50.328;8.542;2022-07-26T11:24:24;98437.75;;;27.59;37.13
69971;BME280;57301;50.328;8.542;2022-07-26T11:26:52;98445.47;;;27.68;37.56
69971;BME280;57301;50.328;8.542;2022-07-26T11:29:29;98440.25;;;28.29;36.13
69971;BME280;57301;50.328;8.542;2022-07-26T11:32:06;98442.53;;;28.42;35.53
69971;BME280;57301;50.328;8.542;2022-07-26T11:34:42;98433.00;;;28.80;35.10
69971;BME280;57301;50.328;8.542;2022-07-26T11:37:10;98432.06;;;29.77;33.83
69971;BME280;57301;50.328;8.542;2022-07-26T11:39:37;98443.56;;;30.54;32.17
69971;BME280;57301;50.328;8.542;2022-07-26T11:42:09;98435.19;;;30.74;30.68
69971;BME280;57301;50.328;8.542;2022-07-26T11:44:36;98446.81;;;30.16;30.67
69971;BME280;57301;50.328;8.542;2022-07-26T11:47:17;98438.97;;;29.69;32.48
69971;BME280;57301;50.328;8.542;2022-07-26T11:49:51;98437.63;;;29.46;32.88
69971;BME280;57301;50.328;8.542;2022-07-26T11:52:38;98443.41;;;29.39;32.71
69971;BME280;57301;50.328;8.542;2022-07-26T11:55:05;98448.41;;;29.22;33.01
69971;BME280;57301;50.328;8.542;2022-07-26T11:57:32;98449.16;;;29.68;32.89
69971;BME280;57301;50.328;8.542;2022-07-26T11:59:59;98451.25;;;30.02;32.09
69971;BME280;57301;50.328;8.542;2022-07-26T12:02:27;98445.88;;;29.61;32.69
69971;BME280;57301;50.328;8.542;2022-07-26T12:05:15;98448.66;;;29.05;33.59
69971;BME280;57301;50.328;8.542;2022-07-26T12:07:58;98450.53;;;28.64;34.19
69971;BME280;57301;50.328;8.542;2022-07-26T12:10:26;98443.28;;;28.27;35.25
69971;BME280;57301;50.328;8.542;2022-07-26T12:13:10;98448.69;;;28.02;36.20
69971;BME280;57301;50.328;8.542;2022-07-26T12:15:48;98448.00;;;28.32;35.69
69971;BME280;57301;50.328;8.542;2022-07-26T12:18:24;98449.84;;;28.21;35.65
69971;BME280;57301;50.328;8.542;2022-07-26T12:21:01;98442.34;;;27.49;36.70
69971;BME280;57301;50.328;8.542;2022-07-26T12:23:48;98443.50;;;27.58;36.29
69971;BME280;57301;50.328;8.542;2022-07-26T12:26:26;98442.50;;;27.74;35.61
69971;BME280;57301;50.328;8.542;2022-07-26T12:28:54;98451.44;;;28.02;34.94
69971;BME280;57301;50.328;8.542;2022-07-26T12:31:26;98441.34;;;28.23;35.53
69971;BME280;57301;50.328;8.542;2022-07-26T12:33:53;98450.47;;;28.33;35.57
69971;BME280;57301;50.328;8.542;2022-07-26T12:36:20;98444.22;;;28.69;35.08
69971;BME280;57301;50.328;8.542;2022-07-26T12:38:58;98450.25;;;28.65;34.52
69971;BME280;57301;50.328;8.542;2022-07-26T12:41:35;98443.72;;;28.97;33.76
69971;BME280;57301;50.328;8.542;2022-07-26T12:44:03;98447.53;;;28.91;33.75
69971;BME280;57301;50.328;8.542;2022-07-26T12:46:31;98435.06;;;27.65;35.40
69971;BME280;57301;50.328;8.542;2022-07-26T12:48:58;98439.78;;;27.69;35.59
69971;BME280;57301;50.328;8.542;2022-07-26T12:51:26;98438.69;;;26.69;37.11
69971;BME280;57301;50.328;8.542;2022-07-26T12:53:52;98443.34;;;26.41;38.33
69971;BME280;57301;50.328;8.542;2022-07-26T12:56:19;98434.41;;;27.47;35.74
69971;BME280;57301;50.328;8.542;2022-07-26T12:58:46;98427.88;;;28.06;35.03
69971;BME280;57301;50.328;8.542;2022-07-26T13:01:12;98438.19;;;28.82;33.80
69971;BME280;57301;50.328;8.542;2022-07-26T13:03:39;98428.31;;;29.27;33.39
69971;BME280;57301;50.328;8.542;2022-07-26T13:06:06;98430.78;;;29.59;32.81
69971;BME280;57301;50.328;8.542;2022-07-26T13:08:32;98426.91;;;29.65;32.04
69971;BME280;57301;50.328;8.542;2022-07-26T13:10:59;98431.44;;;30.00;32.23
69971;BME280;57301;50.328;8.542;2022-07-26T13:13:25;98412.44;;;30.97;31.02
69971;BME280;57301;50.328;8.542;2022-07-26T13:15:52;98409.16;;;31.53;29.20
69971;BME280;57301;50.328;8.542;2022-07-26T13:18:18;98402.22;;;31.32;29.94
69971;BME280;57301;50.328;8.542;2022-07-26T13:20:45;98404.22;;;31.50;28.85
69971;BME280;57301;50.328;8.542;2022-07-26T13:23:12;98391.59;;;30.47;30.01
69971;BME280;57301;50.328;8.542;2022-07-26T13:25:41;98395.56;;;30.26;31.59
69971;BME280;57301;50.328;8.542;2022-07-26T13:28:08;98407.66;;;29.65;31.97
69971;BME280;57301;50.328;8.542;2022-07-26T13:30:36;98411.31;;;30.59;31.61
69971;BME280;57301;50.328;8.542;2022-07-26T13:33:03;98407.13;;;32.69;28.38